Time;durP1;ratioP1;P1;durP2;ratioP2;P2;SDS_P1;SDS_P2;PMS_P1;PMS_P2;Temp;Humidity;BMP_temperature;BMP_pressure;BME280_temperature;BME280_humidity;BME280_pressure;Samples;Min_cycle;Max_cycle;Signal;HPM_P1;HPM_P2
2023/06/03 00:01:07;;;;;;;1.07;0.60;;;;;;;10.74;53.45;101545.22;5000899;28;20228;-81
2023/06/03 00:03:36;;;;;;;2.37;1.10;;;;;;;10.73;53.89;101546.16;5006672;28;20239;-82
2023/06/03 00:06:03;;;;;;;2.30;0.90;;;;;;;10.71;54.17;101546.22;5010501;28;20257;-82
2023/06/03 00:08:29;;;;;;;0.90;0.70;;;;;;;10.69;53.99;101547.22;5000721;28;20203;-82
2023/06/03 00:10:56;;;;;;;1.30;0.80;;;;;;;10.65;53.56;101540.31;5013863;28;20260;-81
2023/06/03 00:13:22;;;;;;;2.60;1.10;;;;;;;10.59;53.43;101545.94;5012175;28;20202;-81
2023/06/03 00:15:49;;;;;;;3.80;0.80;;;;;;;10.53;53.98;101544.47;5006196;28;20219;-82
2023/06/03 00:18:16;;;;;;;2.73;1.10;;;;;;;10.49;54.12;101545.53;5006408;28;20278;-81
2023/06/03 00:20:47;;;;;;;2.23;0.90;;;;;;;10.44;54.75;101539.56;5012702;28;20199;-81
2023/06/03 00:23:13;;;;;;;2.33;1.13;;;;;;;10.42;55.04;101539.63;5010367;28;20208;-81
2023/06/03 00:25:40;;;;;;;1.83;0.80;;;;;;;10.38;54.81;101543.41;5015657;28;20202;-81
2023/06/03 00:28:06;;;;;;;1.33;0.70;;;;;;;10.36;54.65;101539.94;5009962;28;20210;-81
2023/06/03 00:30:33;;;;;;;1.00;0.70;;;;;;;10.32;54.63;101534.84;5011934;28;20208;-82
2023/06/03 00:32:59;;;;;;;2.77;1.07;;;;;;;10.30;54.47;101532.25;5014757;28;20572;-81
2023/06/03 00:35:26;;;;;;;1.13;0.80;;;;;;;10.28;54.58;101536.78;5004394;28;20247;-82
2023/06/03 00:37:55;;;;;;;2.67;0.70;;;;;;;10.25;55.15;101541.38;5004593;28;20204;-81
2023/06/03 00:40:21;;;;;;;3.00;0.83;;;;;;;10.21;55.00;101545.97;5002804;28;20200;-81
2023/06/03 00:42:48;;;;;;;2.03;0.93;;;;;;;10.19;55.00;101542.56;5002878;28;20233;-81
2023/06/03 00:45:14;;;;;;;2.50;0.63;;;;;;;10.18;55.13;101550.59;5004606;28;20218;-82
2023/06/03 00:47:42;;;;;;;2.97;0.90;;;;;;;10.15;54.95;101554.25;4997803;28;20203;-81
2023/06/03 00:50:10;;;;;;;2.20;0.80;;;;;;;10.13;55.12;101556.13;5005336;28;20215;-84
2023/06/03 00:52:39;;;;;;;2.10;0.80;;;;;;;10.11;54.97;101555.31;5008656;28;20615;-81
2023/06/03 00:55:08;;;;;;;1.90;0.67;;;;;;;10.08;55.34;101558.13;5013494;28;20803;-82
2023/06/03 00:57:35;;;;;;;2.53;1.10;;;;;;;10.06;55.11;101568.84;5014221;28;20203;-81
2023/06/03 01:00:01;;;;;;;2.10;0.80;;;;;;;10.04;55.18;101569.84;5008087;28;20685;-82
2023/06/03 01:02:28;;;;;;;1.30;0.70;;;;;;;10.00;55.22;101569.16;5013453;28;20239;-82
2023/06/03 01:04:57;;;;;;;2.33;1.00;;;;;;;9.97;55.77;101577.25;5007818;28;20239;-81
2023/06/03 01:07:31;;;;;;;0.70;0.63;;;;;;;9.95;55.20;101568.47;5007025;28;20279;-81
2023/06/03 01:10:07;;;;;;;2.00;0.70;;;;;;;9.91;55.73;101572.22;5007949;28;20199;-81
2023/06/03 01:12:43;;;;;;;3.60;0.93;;;;;;;9.89;55.85;101568.75;5005815;28;20218;-82
2023/06/03 01:15:16;;;;;;;1.77;0.97;;;;;;;9.82;55.02;101569.13;5007577;28;20204;-82
2023/06/03 01:17:47;;;;;;;3.07;0.80;;;;;;;9.67;55.21;101568.84;5003577;28;20207;-82
2023/06/03 01:20:16;;;;;;;1.40;0.80;;;;;;;9.50;55.53;101573.19;5007673;28;20200;-83
2023/06/03 01:22:44;;;;;;;0.80;0.70;;;;;;;9.35;56.33;101570.28;5011026;28;20258;-81
2023/06/03 01:25:15;;;;;;;1.17;0.87;;;;;;;9.23;56.46;101572.63;4995991;28;20207;-82
2023/06/03 01:27:44;;;;;;;2.13;0.93;;;;;;;9.15;57.90;101572.06;5012485;28;20200;-83
2023/06/03 01:30:12;;;;;;;1.83;0.77;;;;;;;9.10;58.26;101569.63;5007553;28;20214;-83
2023/06/03 01:32:39;;;;;;;1.47;0.77;;;;;;;9.04;57.91;101568.09;5003949;28;20226;-82
2023/06/03 01:35:08;;;;;;;1.73;0.90;;;;;;;9.01;58.67;101572.66;5001646;28;20206;-82
2023/06/03 01:37:35;;;;;;;1.93;0.70;;;;;;;8.96;58.45;101567.53;5004964;28;20566;-82
2023/06/03 01:40:05;;;;;;;2.43;0.80;;;;;;;8.93;59.34;101565.03;5005663;28;20649;-82
2023/06/03 01:42:33;;;;;;;1.77;0.83;;;;;;;8.91;59.46;101566.91;5011982;28;20237;-82
2023/06/03 01:45:00;;;;;;;1.33;1.00;;;;;;;8.89;59.16;101566.09;5015557;28;20210;-82
2023/06/03 01:47:26;;;;;;;1.00;0.80;;;;;;;8.86;58.99;101563.56;5010254;28;20585;-82
2023/06/03 01:49:53;;;;;;;1.53;1.00;;;;;;;8.83;59.96;101562.81;5007609;28;20295;-83
2023/06/03 01:52:20;;;;;;;1.33;0.83;;;;;;;8.78;59.37;101575.44;5015596;28;20228;-82
2023/06/03 01:54:47;;;;;;;1.93;0.83;;;;;;;8.73;60.13;101569.44;5011857;28;20206;-82
2023/06/03 01:57:13;;;;;;;3.43;1.80;;;;;;;8.70;60.39;101571.28;5012501;28;20236;-82
2023/06/03 01:59:41;;;;;;;2.40;0.77;;;;;;;8.68;59.84;101572.28;5014356;28;20210;-81
2023/06/03 02:02:08;;;;;;;1.70;0.70;;;;;;;8.60;60.00;101574.38;5018225;28;20234;-82
2023/06/03 02:04:34;;;;;;;2.20;0.80;;;;;;;8.50;60.09;101573.03;5003809;28;20206;-82
2023/06/03 02:07:01;;;;;;;2.73;0.80;;;;;;;8.41;59.85;101568.09;5012010;28;20206;-82
2023/06/03 02:09:29;;;;;;;1.40;0.80;;;;;;;8.31;60.85;101567.53;5011826;28;20199;-82
2023/06/03 02:11:56;;;;;;;1.60;0.90;;;;;;;8.24;60.75;101572.22;5012041;28;20219;-82
2023/06/03 02:14:23;;;;;;;1.03;0.93;;;;;;;8.18;61.70;101572.47;5013521;28;20217;-83
2023/06/03 02:16:50;;;;;;;2.80;0.80;;;;;;;8.11;61.02;101572.75;5010642;28;20202;-83
2023/06/03 02:19:21;;;;;;;1.33;0.90;;;;;;;8.07;62.30;101571.13;5014389;28;20215;-83
2023/06/03 02:21:48;;;;;;;2.27;0.90;;;;;;;8.04;62.88;101564.19;5011263;28;20236;-83
2023/06/03 02:24:16;;;;;;;3.03;0.80;;;;;;;8.02;63.09;101566.03;4998791;28;20195;-82
2023/06/03 02:26:49;;;;;;;1.57;0.60;;;;;;;7.99;62.49;101567.00;4998958;28;20199;-83
2023/06/03 02:29:17;;;;;;;3.60;0.97;;;;;;;7.97;63.20;101571.50;5009862;28;20225;-82
2023/06/03 02:31:44;;;;;;;1.93;0.80;;;;;;;7.96;63.23;101572.44;5004552;28;20907;-82
2023/06/03 02:34:12;;;;;;;1.77;0.90;;;;;;;7.96;63.26;101576.88;5023779;28;20198;-82
2023/06/03 02:36:38;;;;;;;1.27;0.87;;;;;;;7.94;63.44;101584.00;5019352;28;20206;-82
2023/06/03 02:39:07;;;;;;;2.40;0.67;;;;;;;7.90;62.46;101582.38;5003369;28;20241;-82
2023/06/03 02:41:33;;;;;;;1.47;1.00;;;;;;;7.83;61.65;101588.88;4999401;28;20270;-82
2023/06/03 02:44:00;;;;;;;0.80;0.60;;;;;;;7.67;61.67;101585.91;5006402;28;20194;-82
2023/06/03 02:46:26;;;;;;;1.33;0.73;;;;;;;7.55;61.82;101587.19;5016301;28;20210;-82
2023/06/03 02:48:53;;;;;;;0.70;0.67;;;;;;;7.46;61.87;101582.25;5003729;28;20214;-82
2023/06/03 02:51:21;;;;;;;1.37;0.80;;;;;;;7.38;62.82;101578.97;5010362;28;20242;-82
2023/06/03 02:53:47;;;;;;;1.33;0.80;;;;;;;7.35;62.91;101583.53;5012861;28;20206;-83
2023/06/03 02:56:14;;;;;;;2.17;1.00;;;;;;;7.30;63.05;101581.06;5022115;28;20231;-82
2023/06/03 02:58:41;;;;;;;2.83;1.00;;;;;;;7.28;63.40;101582.88;5006339;28;20208;-82
2023/06/03 03:01:07;;;;;;;2.50;1.10;;;;;;;7.23;64.00;101579.53;5024502;28;20230;-82
2023/06/03 03:03:36;;;;;;;1.40;0.70;;;;;;;7.18;64.47;101581.47;5023819;28;20223;-82
2023/06/03 03:06:03;;;;;;;1.30;0.90;;;;;;;7.16;64.65;101580.69;5011103;28;20200;-82
2023/06/03 03:08:31;;;;;;;1.33;0.80;;;;;;;7.16;64.87;101578.03;5005215;28;20214;-82
2023/06/03 03:10:57;;;;;;;1.47;0.90;;;;;;;7.16;65.42;101578.03;5016421;28;20234;-82
2023/06/03 03:13:24;;;;;;;0.60;0.60;;;;;;;7.15;65.51;101581.59;5006101;28;20214;-82
2023/06/03 03:15:50;;;;;;;1.00;0.70;;;;;;;7.12;65.64;101576.41;5018802;28;20648;-82
2023/06/03 03:18:17;;;;;;;1.33;0.87;;;;;;;7.11;65.57;101577.31;5017341;28;20210;-82
2023/06/03 03:20:44;;;;;;;1.77;0.70;;;;;;;7.10;65.94;101573.78;5018289;28;20210;-82
2023/06/03 03:23:13;;;;;;;0.90;0.73;;;;;;;7.10;66.29;101575.56;5002587;28;20274;-82
2023/06/03 03:25:41;;;;;;;1.50;0.83;;;;;;;7.09;66.40;101572.06;5007507;28;20211;-83
2023/06/03 03:28:07;;;;;;;0.90;0.80;;;;;;;7.09;66.70;101587.09;5003609;28;20206;-83
2023/06/03 03:30:37;;;;;;;1.43;0.87;;;;;;;7.10;67.28;101578.22;5016349;28;20298;-82
2023/06/03 03:33:04;;;;;;;1.90;0.90;;;;;;;7.09;66.95;101580.00;5011531;28;20202;-82
2023/06/03 03:35:30;;;;;;;2.83;0.77;;;;;;;7.09;66.83;101582.66;5000208;28;20196;-82
2023/06/03 03:38:02;;;;;;;5.47;0.90;;;;;;;7.07;66.90;101583.63;5011037;28;20208;-83
2023/06/03 03:40:29;;;;;;;3.43;0.73;;;;;;;7.02;65.55;101583.78;5010978;28;20686;-83
2023/06/03 03:42:58;;;;;;;1.30;0.80;;;;;;;6.86;65.18;101575.47;5008547;28;20675;-82
2023/06/03 03:45:27;;;;;;;2.60;0.90;;;;;;;6.78;65.30;101582.81;5006478;28;20207;-82
2023/06/03 03:48:00;;;;;;;1.10;0.77;;;;;;;6.69;66.03;101569.88;5000349;28;20200;-82
2023/06/03 03:50:41;;;;;;;0.77;0.70;;;;;;;6.64;66.78;101582.38;4999756;28;20199;-82
2023/06/03 03:53:09;;;;;;;1.60;0.80;;;;;;;6.60;66.78;101581.63;5011735;28;20206;-82
2023/06/03 03:55:40;;;;;;;2.70;0.93;;;;;;;6.56;67.01;101574.72;5014635;28;20608;-82
2023/06/03 03:58:23;;;;;;;1.60;0.90;;;;;;;6.55;67.86;101580.03;5011343;28;20257;-82
2023/06/03 04:00:50;;;;;;;1.57;0.90;;;;;;;6.56;68.50;101579.13;5012330;28;20203;-82
2023/06/03 04:03:17;;;;;;;2.70;0.87;;;;;;;6.59;68.86;101586.97;5013997;28;20229;-82
2023/06/03 04:05:45;;;;;;;1.17;0.87;;;;;;;6.63;68.97;101582.47;5009910;28;20680;-83
2023/06/03 04:08:20;;;;;;;2.57;0.90;;;;;;;6.66;69.50;101582.34;5008921;28;20206;-82
2023/06/03 04:10:46;;;;;;;1.10;0.87;;;;;;;6.66;69.46;101566.44;5005655;28;20692;-82
2023/06/03 04:13:17;;;;;;;2.10;1.00;;;;;;;6.67;69.96;101569.06;5012035;28;20670;-83
2023/06/03 04:15:43;;;;;;;1.57;0.93;;;;;;;6.70;69.98;101568.97;5014733;28;20767;-82
2023/06/03 04:18:12;;;;;;;1.87;1.10;;;;;;;6.72;69.94;101568.91;5013555;28;20206;-82
2023/06/03 04:20:43;;;;;;;3.77;0.83;;;;;;;6.76;70.66;101568.78;5004646;28;20203;-82
2023/06/03 04:23:16;;;;;;;2.80;1.20;;;;;;;6.81;70.92;101576.53;5005010;28;20215;-82
2023/06/03 04:25:44;;;;;;;1.10;0.77;;;;;;;6.83;70.49;101583.50;5007103;28;20307;-83
2023/06/03 04:28:11;;;;;;;1.10;1.00;;;;;;;6.88;70.53;101583.38;5008034;28;20272;-82
2023/06/03 04:30:39;;;;;;;2.90;0.87;;;;;;;6.93;70.27;101586.75;4998850;28;20211;-82
2023/06/03 04:33:06;;;;;;;1.93;1.33;;;;;;;6.98;70.42;101587.47;5011066;28;20670;-83
2023/06/03 04:35:32;;;;;;;1.17;0.80;;;;;;;7.03;70.33;101589.94;5003014;28;20265;-83
2023/06/03 04:37:59;;;;;;;2.27;1.00;;;;;;;7.08;69.55;101593.31;5015419;28;20254;-83
2023/06/03 04:40:26;;;;;;;1.20;0.93;;;;;;;7.12;69.71;101593.16;5012731;28;20261;-82
2023/06/03 04:42:53;;;;;;;2.20;0.93;;;;;;;7.19;69.42;101591.13;5014173;28;20265;-82
2023/06/03 04:45:21;;;;;;;1.00;0.80;;;;;;;7.23;69.16;101592.78;5010080;28;20664;-82
2023/06/03 04:47:49;;;;;;;2.03;0.87;;;;;;;7.28;68.98;101593.50;5008231;28;20254;-83
2023/06/03 04:50:19;;;;;;;3.27;1.00;;;;;;;7.32;68.42;101590.69;5001814;28;20206;-83
2023/06/03 04:52:46;;;;;;;1.50;0.90;;;;;;;7.38;68.24;101597.53;5015629;28;20232;-83
2023/06/03 04:55:13;;;;;;;1.93;0.90;;;;;;;7.44;68.02;101588.50;5010249;28;20203;-82
2023/06/03 04:57:39;;;;;;;3.23;1.20;;;;;;;7.51;68.63;101590.91;5007452;28;20210;-83
2023/06/03 05:00:09;;;;;;;2.23;0.93;;;;;;;7.57;68.58;101590.66;4999211;28;20210;-83
2023/06/03 05:02:36;;;;;;;2.40;1.00;;;;;;;7.63;67.63;101592.25;5000065;28;20343;-83
2023/06/03 05:05:04;;;;;;;2.37;1.33;;;;;;;7.70;68.21;101600.84;4997144;28;20203;-83
2023/06/03 05:07:31;;;;;;;3.47;1.00;;;;;;;7.75;67.69;101598.88;5009990;28;20207;-83
2023/06/03 05:09:58;;;;;;;1.60;0.97;;;;;;;7.83;68.88;101594.16;5015463;28;20583;-82
2023/06/03 05:12:25;;;;;;;2.20;1.00;;;;;;;7.90;68.77;101593.00;5015780;28;20226;-83
2023/06/03 05:14:52;;;;;;;2.50;1.10;;;;;;;7.98;69.16;101602.41;5010306;28;20203;-83
2023/06/03 05:17:18;;;;;;;3.47;1.00;;;;;;;8.08;69.44;101594.97;5008867;28;20213;-82
2023/06/03 05:19:45;;;;;;;5.33;1.10;;;;;;;8.19;70.11;101597.22;5014867;28;20202;-83
2023/06/03 05:22:13;;;;;;;3.03;1.10;;;;;;;8.31;69.89;101600.25;5005949;28;20227;-82
2023/06/03 05:24:40;;;;;;;1.60;0.90;;;;;;;8.42;69.07;101593.72;5011819;28;20220;-83
2023/06/03 05:27:06;;;;;;;1.30;0.90;;;;;;;8.56;69.15;101599.34;5012621;28;20298;-83
2023/06/03 05:29:34;;;;;;;2.20;1.00;;;;;;;8.68;68.54;101599.69;5007069;28;20211;-83
2023/06/03 05:32:01;;;;;;;2.13;0.73;;;;;;;8.80;68.31;101594.81;5001018;28;20227;-83
2023/06/03 05:34:27;;;;;;;2.03;1.00;;;;;;;8.94;67.92;101601.31;5010593;28;20221;-82
2023/06/03 05:36:54;;;;;;;1.87;0.87;;;;;;;9.13;67.53;101606.72;5014251;28;20210;-82
2023/06/03 05:39:22;;;;;;;1.87;0.77;;;;;;;9.29;66.02;101606.94;5003466;28;20219;-83
2023/06/03 05:41:48;;;;;;;1.23;0.67;;;;;;;9.48;65.77;101612.31;5000845;28;20243;-83
2023/06/03 05:44:14;;;;;;;2.20;0.90;;;;;;;9.65;64.90;101615.09;5009653;28;20687;-83
2023/06/03 05:46:41;;;;;;;3.80;0.90;;;;;;;9.86;64.50;101619.44;4999549;28;20207;-83
2023/06/03 05:49:07;;;;;;;3.97;1.00;;;;;;;10.09;63.98;101607.75;5020887;28;20639;-83
2023/06/03 05:51:34;;;;;;;1.73;0.80;;;;;;;10.29;63.42;101613.06;4999397;28;20603;-83
2023/06/03 05:54:00;;;;;;;1.83;1.07;;;;;;;10.50;62.24;101607.66;5012327;28;20564;-83
2023/06/03 05:56:28;;;;;;;1.87;0.87;;;;;;;10.68;60.65;101604.13;5002133;28;20574;-83
2023/06/03 05:58:57;;;;;;;1.00;0.70;;;;;;;10.88;60.46;101608.47;5011894;28;20211;-83
2023/06/03 06:01:24;;;;;;;1.70;0.87;;;;;;;11.08;59.73;101606.53;5008780;28;20246;-83
2023/06/03 06:03:50;;;;;;;1.60;0.80;;;;;;;11.30;59.43;101606.28;5006132;28;20231;-84
2023/06/03 06:06:17;;;;;;;1.60;0.70;;;;;;;11.50;58.46;101605.25;5006753;28;20293;-83
2023/06/03 06:08:43;;;;;;;1.37;0.90;;;;;;;11.71;58.00;101603.28;5006885;28;20209;-83
2023/06/03 06:11:10;;;;;;;1.63;0.97;;;;;;;11.92;57.17;101598.66;5007953;28;20236;-84
2023/06/03 06:13:38;;;;;;;2.27;0.93;;;;;;;12.11;56.18;101602.03;5009315;28;20804;-83
2023/06/03 06:16:06;;;;;;;2.90;0.83;;;;;;;12.26;55.29;101597.66;5004149;28;20206;-84
2023/06/03 06:18:33;;;;;;;2.00;1.00;;;;;;;12.44;54.54;101600.19;5005537;28;20200;-85
2023/06/03 06:21:00;;;;;;;1.80;0.97;;;;;;;12.59;54.15;101592.25;5003008;28;20309;-86
2023/06/03 06:23:27;;;;;;;4.07;0.87;;;;;;;12.75;53.55;101593.09;5011158;28;20229;-84
2023/06/03 06:25:55;;;;;;;3.43;1.23;;;;;;;12.91;52.62;101593.06;5012374;28;20202;-84
2023/06/03 06:28:24;;;;;;;1.47;1.00;;;;;;;13.00;52.45;101582.69;5000770;28;20211;-83
2023/06/03 06:30:56;;;;;;;1.70;0.97;;;;;;;13.14;52.75;101585.41;5005715;28;20222;-83
2023/06/03 06:33:22;;;;;;;2.60;0.90;;;;;;;13.32;52.28;101590.66;5014905;28;20217;-83
2023/06/03 06:35:49;;;;;;;1.47;1.10;;;;;;;13.49;51.44;101591.38;5009525;28;20226;-84
2023/06/03 06:38:16;;;;;;;1.70;1.07;;;;;;;13.64;51.15;101588.72;5012067;28;20554;-83
2023/06/03 06:40:45;;;;;;;1.97;0.70;;;;;;;13.78;50.87;101597.63;5004009;28;20211;-84
2023/06/03 06:43:14;;;;;;;1.40;0.90;;;;;;;13.94;50.72;101599.38;5007806;28;20289;-83
2023/06/03 06:45:40;;;;;;;3.00;1.20;;;;;;;14.06;50.26;101595.91;5003128;28;20467;-84
2023/06/03 06:48:10;;;;;;;3.67;1.20;;;;;;;14.18;50.07;101592.44;5003093;28;20214;-86
2023/06/03 06:50:48;;;;;;;3.13;1.30;;;;;;;14.32;49.29;101594.25;5007393;28;20199;-83
2023/06/03 06:53:16;;;;;;;3.00;1.37;;;;;;;14.43;49.06;101594.47;5003036;28;20200;-83
2023/06/03 06:55:48;;;;;;;2.53;1.23;;;;;;;14.57;48.68;101589.06;5005868;28;20214;-84
2023/06/03 06:58:15;;;;;;;3.23;1.47;;;;;;;14.71;48.24;101586.31;5004810;28;20205;-85
2023/06/03 07:00:42;;;;;;;4.10;1.13;;;;;;;14.82;47.21;101585.63;5002735;28;20207;-87
2023/06/03 07:03:13;;;;;;;3.00;1.60;;;;;;;14.94;47.16;101587.50;5013659;28;20700;-84
2023/06/03 07:05:39;;;;;;;1.97;1.20;;;;;;;15.09;47.33;101588.28;5011997;28;20214;-84
2023/06/03 07:08:06;;;;;;;3.83;1.53;;;;;;;15.24;46.97;101582.75;5005330;28;20215;-84
2023/06/03 07:10:33;;;;;;;2.10;1.30;;;;;;;15.45;47.42;101590.28;5011320;28;20203;-84
2023/06/03 07:13:01;;;;;;;4.03;1.43;;;;;;;15.61;46.54;101590.97;5007894;28;20228;-84
2023/06/03 07:15:28;;;;;;;4.07;1.43;;;;;;;15.76;46.39;101594.44;5017503;28;20226;-84
2023/06/03 07:17:56;;;;;;;4.30;1.30;;;;;;;15.89;46.41;101584.56;5010452;28;20291;-85
2023/06/03 07:20:31;;;;;;;2.57;1.10;;;;;;;16.02;45.77;101582.69;5013653;28;20608;-85
2023/06/03 07:22:58;;;;;;;5.03;1.20;;;;;;;16.09;44.79;101586.69;5010925;28;20588;-84
2023/06/03 07:25:36;;;;;;;3.23;1.13;;;;;;;16.17;44.04;101580.75;5013304;28;20734;-84
2023/06/03 07:28:05;;;;;;;2.67;1.20;;;;;;;16.26;43.99;101582.78;5014514;28;20191;-84
2023/06/03 07:30:35;;;;;;;1.83;1.20;;;;;;;16.37;43.56;101582.84;5017247;28;20218;-86
2023/06/03 07:33:04;;;;;;;2.33;1.13;;;;;;;16.47;43.85;101583.91;5008861;28;20274;-85
2023/06/03 07:35:33;;;;;;;1.97;1.30;;;;;;;16.59;43.66;101576.75;5013567;28;20255;-83
2023/06/03 07:38:00;;;;;;;2.67;1.40;;;;;;;16.66;43.06;101584.28;5015725;28;20205;-84
2023/06/03 07:40:39;;;;;;;4.10;1.27;;;;;;;16.80;42.83;101594.03;5002887;28;20229;-84
2023/06/03 07:43:06;;;;;;;3.40;1.27;;;;;;;16.98;42.82;101597.19;5011605;28;20249;-85
2023/06/03 07:45:33;;;;;;;2.97;1.13;;;;;;;17.11;41.91;101592.59;5012783;28;20201;-85
2023/06/03 07:48:01;;;;;;;1.73;1.20;;;;;;;17.18;40.96;101593.00;5010532;28;20205;-85
2023/06/03 07:50:28;;;;;;;2.70;0.83;;;;;;;17.27;41.64;101593.13;5010712;28;21483;-84
2023/06/03 07:53:00;;;;;;;1.37;0.80;;;;;;;17.36;40.56;101588.91;5008353;28;20234;-84
2023/06/03 07:55:38;;;;;;;1.33;0.60;;;;;;;17.44;40.35;101585.59;5013985;28;20200;-85
2023/06/03 07:58:04;;;;;;;2.70;0.60;;;;;;;17.50;39.19;101590.50;5017764;28;20703;-84
2023/06/03 08:00:31;;;;;;;0.63;0.50;;;;;;;17.51;38.83;101587.69;5003978;28;20205;-84
2023/06/03 08:02:57;;;;;;;2.03;0.70;;;;;;;17.55;38.31;101585.63;5009877;28;20255;-83
2023/06/03 08:05:32;;;;;;;2.13;0.60;;;;;;;17.61;38.79;101582.44;5010304;28;20236;-85
2023/06/03 08:08:00;;;;;;;0.70;0.50;;;;;;;17.67;38.56;101590.09;5016994;28;20196;-83
2023/06/03 08:10:27;;;;;;;0.73;0.50;;;;;;;17.75;38.47;101584.09;5008837;28;20691;-84
2023/06/03 08:12:53;;;;;;;1.90;0.60;;;;;;;17.80;38.40;101588.13;5007901;28;20229;-84
2023/06/03 08:15:27;;;;;;;2.40;0.43;;;;;;;17.89;38.97;101589.28;5009131;28;20209;-84
2023/06/03 08:17:54;;;;;;;1.60;0.40;;;;;;;17.95;38.28;101589.63;5012776;28;20201;-83
2023/06/03 08:20:25;;;;;;;1.40;0.60;;;;;;;18.04;37.64;101578.13;5008053;28;20574;-82
2023/06/03 08:22:52;;;;;;;1.13;0.50;;;;;;;18.07;37.56;101586.94;5008486;28;20228;-85
2023/06/03 08:25:20;;;;;;;1.33;0.50;;;;;;;18.16;37.53;101587.06;5004011;28;20233;-85
2023/06/03 08:27:47;;;;;;;1.70;0.73;;;;;;;18.24;37.53;101594.53;5007941;28;20221;-84
2023/06/03 08:30:14;;;;;;;2.67;0.60;;;;;;;18.32;37.05;101587.53;5017341;28;20220;-84
2023/06/03 08:32:41;;;;;;;1.63;0.43;;;;;;;18.37;36.79;101574.53;5003822;28;20249;-85
2023/06/03 08:35:09;;;;;;;2.57;0.70;;;;;;;18.40;35.72;101576.13;5016825;28;20205;-85
2023/06/03 08:37:36;;;;;;;2.40;0.60;;;;;;;18.45;35.81;101584.69;5002171;28;20202;-83
2023/06/03 08:40:06;;;;;;;0.87;0.40;;;;;;;18.50;35.59;101585.16;5004406;28;20211;-84
2023/06/03 08:42:40;;;;;;;0.93;0.60;;;;;;;18.52;35.59;101566.16;5009242;28;20226;-84
2023/06/03 08:45:07;;;;;;;1.17;0.50;;;;;;;18.58;36.22;101580.03;5014575;28;20304;-85
2023/06/03 08:47:42;;;;;;;1.43;0.73;;;;;;;18.66;35.95;101574.00;5003132;28;20215;-84
2023/06/03 08:50:11;;;;;;;1.10;0.40;;;;;;;18.74;35.74;101576.94;5010430;28;20200;-85
2023/06/03 08:52:40;;;;;;;2.67;0.60;;;;;;;18.81;36.54;101577.28;5001630;28;20233;-85
2023/06/03 08:55:07;;;;;;;1.70;0.47;;;;;;;18.88;36.30;101573.09;5015254;28;20288;-85
2023/06/03 08:57:40;;;;;;;1.30;0.67;;;;;;;18.92;34.58;101567.31;5001510;28;20687;-84
2023/06/03 09:00:09;;;;;;;0.60;0.40;;;;;;;18.95;34.71;101579.69;5007125;28;20577;-85
2023/06/03 09:02:37;;;;;;;0.83;0.50;;;;;;;19.02;34.23;101578.16;5004151;28;20227;-84
2023/06/03 09:05:05;;;;;;;0.60;0.43;;;;;;;19.09;33.59;101582.09;5004662;28;20228;-84
2023/06/03 09:07:33;;;;;;;0.50;0.47;;;;;;;19.15;33.13;101570.78;5000317;28;20222;-85
2023/06/03 09:10:01;;;;;;;1.20;0.70;;;;;;;19.17;33.02;101576.03;5005127;28;20238;-84
2023/06/03 09:12:28;;;;;;;0.60;0.40;;;;;;;19.19;33.25;101572.19;5008815;28;20590;-84
2023/06/03 09:14:57;;;;;;;1.43;0.53;;;;;;;19.26;33.72;101564.44;5014814;28;20203;-85
2023/06/03 09:17:24;;;;;;;2.63;0.50;;;;;;;19.31;32.82;101559.53;5013380;28;20217;-85
2023/06/03 09:19:51;;;;;;;1.03;0.43;;;;;;;19.37;33.10;101567.94;5029893;28;20293;-85
2023/06/03 09:22:18;;;;;;;0.30;0.30;;;;;;;19.38;31.92;101564.25;5014347;28;20224;-84
2023/06/03 09:24:44;;;;;;;1.23;0.57;;;;;;;19.39;32.38;101563.25;5027137;28;20227;-84
2023/06/03 09:27:11;;;;;;;1.50;0.60;;;;;;;19.46;31.98;101562.75;4999274;28;20211;-84
2023/06/03 09:29:38;;;;;;;0.77;0.40;;;;;;;19.48;31.68;101563.47;4995383;28;20221;-84
2023/06/03 09:32:08;;;;;;;1.77;0.40;;;;;;;19.54;31.01;101557.53;5012708;28;20227;-83
2023/06/03 09:34:36;;;;;;;0.50;0.30;;;;;;;19.57;30.91;101560.00;5014638;28;20212;-84
2023/06/03 09:37:08;;;;;;;0.57;0.47;;;;;;;19.62;31.56;101552.34;5009144;28;20212;-84
2023/06/03 09:39:36;;;;;;;0.80;0.50;;;;;;;19.64;31.96;101547.66;5011176;28;20641;-84
2023/06/03 09:42:03;;;;;;;2.03;0.50;;;;;;;19.67;31.92;101550.09;5014912;28;20233;-85
2023/06/03 09:44:41;;;;;;;1.17;0.50;;;;;;;19.72;31.53;101547.84;5014538;28;20228;-84
2023/06/03 09:47:10;;;;;;;1.00;0.60;;;;;;;19.75;31.41;101539.47;5013374;28;20196;-83
2023/06/03 09:49:37;;;;;;;0.50;0.50;;;;;;;19.76;30.06;101558.25;5013716;28;20203;-82
2023/06/03 09:52:11;;;;;;;1.33;0.60;;;;;;;19.72;30.01;101554.09;5014115;28;20229;-82
2023/06/03 09:54:37;;;;;;;0.63;0.43;;;;;;;19.75;30.22;101552.97;5013193;28;20284;-85
2023/06/03 09:57:12;;;;;;;0.65;0.40;;;;;;;19.80;30.04;101545.34;5013715;28;20209;-85
2023/06/03 09:59:42;;;;;;;1.83;0.40;;;;;;;19.92;30.18;101544.25;5014440;28;20230;-85
2023/06/03 10:02:14;;;;;;;0.33;0.30;;;;;;;19.99;29.60;101548.13;4999445;28;20613;-84
2023/06/03 10:04:42;;;;;;;1.47;0.50;;;;;;;20.03;29.69;101548.72;4994683;28;20305;-84
2023/06/03 10:07:10;;;;;;;1.13;0.40;;;;;;;19.93;28.72;101540.53;5012568;28;20200;-84
2023/06/03 10:09:38;;;;;;;1.93;0.50;;;;;;;19.92;28.87;101544.25;5026455;28;20309;-84
2023/06/03 10:12:07;;;;;;;0.50;0.40;;;;;;;19.95;29.34;101546.69;4994325;28;20315;-85
2023/06/03 10:14:34;;;;;;;0.60;0.50;;;;;;;19.94;29.10;101536.00;4994496;28;20212;-84
2023/06/03 10:17:06;;;;;;;1.23;0.40;;;;;;;19.98;28.91;101542.84;4994472;28;20575;-84
2023/06/03 10:19:35;;;;;;;4.40;0.60;;;;;;;20.03;28.70;101543.31;4995363;28;20272;-84
2023/06/03 10:22:03;;;;;;;1.43;0.50;;;;;;;20.04;28.88;101537.75;4994979;28;20259;-85
2023/06/03 10:24:31;;;;;;;1.57;0.40;;;;;;;20.09;28.78;101542.75;4993489;28;20264;-86
2023/06/03 10:26:58;;;;;;;0.77;0.50;;;;;;;20.16;28.92;101535.78;4993910;28;20206;-85
2023/06/03 10:29:26;;;;;;;0.57;0.50;;;;;;;20.27;28.80;101532.97;4993613;28;20651;-85
2023/06/03 10:31:54;;;;;;;0.43;0.30;;;;;;;20.30;29.11;101527.28;4994330;28;20699;-85
2023/06/03 10:34:22;;;;;;;2.22;0.60;;;;;;;20.42;29.29;101531.63;5006720;28;20304;-85
2023/06/03 10:36:57;;;;;;;0.60;0.50;;;;;;;20.38;28.95;101532.06;5014159;28;20206;-84
2023/06/03 10:39:25;;;;;;;1.33;0.40;;;;;;;20.34;29.06;101523.31;5015540;28;20582;-85
2023/06/03 10:42:00;;;;;;;0.40;0.40;;;;;;;20.40;29.92;101527.38;4999674;28;20235;-84
2023/06/03 10:44:48;;;;;;;1.00;0.60;;;;;;;20.47;29.69;101531.19;4994512;28;20293;-84
2023/06/03 10:47:32;;;;;;;2.53;0.43;;;;;;;20.47;27.70;101522.22;4995567;28;20202;-84
2023/06/03 10:50:37;;;;;;;0.95;0.50;;;;;;;20.52;28.06;101504.59;5010583;28;20285;-85
2023/06/03 10:53:37;;;;;;;0.80;0.40;;;;;;;20.65;29.21;101528.66;5017541;28;20245;-86
2023/06/03 10:56:21;;;;;;;0.95;0.40;;;;;;;20.76;28.49;101521.28;4984852;28;20202;-88
2023/06/03 10:59:10;;;;;;;1.50;0.40;;;;;;;20.84;28.24;101525.97;5000141;28;20243;-85
2023/06/03 11:02:00;;;;;;;0.70;0.50;;;;;;;20.99;28.39;101523.69;5035847;28;20218;-86
2023/06/03 11:04:31;;;;;;;1.85;0.40;;;;;;;21.07;27.54;101518.41;5035887;28;20222;-86
2023/06/03 11:07:03;;;;;;;1.35;0.50;;;;;;;21.09;26.96;101509.16;5035844;28;20256;-85
2023/06/03 11:09:48;;;;;;;1.45;0.80;;;;;;;21.09;26.34;101508.28;5035155;28;20256;-85
2023/06/03 11:12:23;;;;;;;1.40;0.50;;;;;;;21.11;26.73;101498.19;5035484;28;20237;-85
2023/06/03 11:14:57;;;;;;;1.00;0.77;;;;;;;21.15;27.07;101495.00;5036554;28;20213;-85
2023/06/03 11:18:16;;;;;;;0.47;0.30;;;;;;;21.23;27.50;101505.16;5037381;28;20688;-86
2023/06/03 11:20:49;;;;;;;0.57;0.50;;;;;;;21.30;27.72;101502.75;5036356;28;20202;-85
2023/06/03 11:23:49;;;;;;;0.63;0.50;;;;;;;21.38;27.32;101506.41;5036123;28;20560;-85
2023/06/03 11:26:42;;;;;;;2.83;0.70;;;;;;;21.38;27.20;101508.25;5019314;28;20699;-85
2023/06/03 11:30:05;;;;;;;2.40;0.63;;;;;;;21.40;27.01;101511.69;5015341;28;20224;-85
2023/06/03 11:35:31;;;;;;;0.70;0.40;;;;;;;21.47;26.95;101496.56;4973358;28;20208;-85
2023/06/03 11:38:05;;;;;;;0.75;0.60;;;;;;;21.63;27.10;101498.66;4974844;28;20792;-85
2023/06/03 11:40:48;;;;;;;0.50;0.40;;;;;;;21.71;26.25;101498.75;5013954;28;20256;-85
2023/06/03 11:43:27;;;;;;;0.70;0.70;;;;;;;21.76;26.49;101504.59;5015170;28;20624;-84